Time,TemperatureF,DewpointF,PressureIn,WindDirection,WindDirectionDegrees,WindSpeedMPH,WindSpeedGustMPH,Humidity,HourlyPrecipIn,Conditions,Clouds,dailyrainin,SoftwareType,DateUTC
2013-01-15 00:05:00,23.9,21.1,30.32,NNE,20,0.0,0.0,89,0.00,,,0.00,Wunderground v.1.15,2013-01-15 05:05:00,
2013-01-15 00:15:00,23.6,20.8,30.31,NNE,20,0.0,0.0,89,0.00,,,0.00,Wunderground v.1.15,2013-01-15 05:15:00,
2013-01-15 00:20:00,23.6,21.1,30.31,NNE,20,0.0,0.0,90,0.00,,,0.00,Wunderground v.1.15,2013-01-15 05:20:00,
2013-01-15 00:25:00,23.6,21.1,30.32,NNE,20,0.0,0.0,90,0.00,,,0.00,Wunderground v.1.15,2013-01-15 05:25:00,
2013-01-15 00:30:00,23.6,21.1,30.32,NNE,20,0.0,0.0,90,0.00,,,0.00,Wunderground v.1.15,2013-01-15 05:30:00,
2013-01-15 00:35:00,23.6,21.4,30.31,NNE,20,0.0,1.0,91,0.00,,,0.00,Wunderground v.1.15,2013-01-15 05:35:00,
2013-01-15 00:40:00,23.6,21.4,30.31,NNE,21,1.0,1.0,91,0.00,,,0.00,Wunderground v.1.15,2013-01-15 05:40:00,
2013-01-15 00:50:00,23.5,21.3,30.31,NNE,20,1.0,1.0,91,0.00,,,0.00,Wunderground v.1.15,2013-01-15 05:50:00,
2013-01-15 00:55:00,23.4,21.2,30.31,NNE,20,0.0,1.0,91,0.00,,,0.00,Wunderground v.1.15,2013-01-15 05:55:00,
2013-01-15 03:00:00,24.2,21.2,30.33,NNE,13,2.0,2.0,88,0.00,,,0.00,Wunderground v.1.15,2013-01-15 08:00:00,
2013-01-15 03:10:00,24.1,21.1,30.33,North,5,2.0,2.0,88,0.00,,,0.00,Wunderground v.1.15,2013-01-15 08:10:00,
2013-01-15 03:15:00,23.9,21.1,30.33,NNE,16,2.0,2.0,89,0.00,,,0.00,Wunderground v.1.15,2013-01-15 08:15:00,
2013-01-15 03:25:00,23.7,20.9,30.33,North,9,1.0,2.0,89,0.00,,,0.00,Wunderground v.1.15,2013-01-15 08:25:00,
2013-01-15 03:30:00,23.6,20.8,30.33,North,11,1.0,1.0,89,0.00,,,0.00,Wunderground v.1.15,2013-01-15 08:30:00,
2013-01-15 03:35:00,23.2,20.4,30.33,North,11,1.0,1.0,89,0.00,,,0.00,Wunderground v.1.15,2013-01-15 08:35:00,
2013-01-15 03:40:00,22.9,20.4,30.33,North,11,1.0,1.0,90,0.00,,,0.00,Wunderground v.1.15,2013-01-15 08:40:00,
2013-01-15 03:45:00,23.0,20.5,30.33,North,11,1.0,1.0,90,0.00,,,0.00,Wunderground v.1.15,2013-01-15 08:45:00,
2013-01-15 03:55:00,22.9,20.7,30.33,North,11,1.0,1.0,91,0.00,,,0.00,Wunderground v.1.15,2013-01-15 08:55:00,
2013-01-15 04:05:00,22.3,19.8,30.33,North,11,0.0,1.0,90,0.00,,,0.00,Wunderground v.1.15,2013-01-15 09:05:00,
2013-01-15 04:10:00,22.1,19.9,30.33,NNE,12,0.0,0.0,91,0.00,,,0.00,Wunderground v.1.15,2013-01-15 09:10:00,
2013-01-15 04:15:00,21.9,19.7,30.32,NNE,12,1.0,1.0,91,0.00,,,0.00,Wunderground v.1.15,2013-01-15 09:15:00,
2013-01-15 04:20:00,21.9,19.7,30.33,NNE,13,1.0,1.0,91,0.00,,,0.00,Wunderground v.1.15,2013-01-15 09:20:00,
2013-01-15 04:30:00,22.0,20.0,30.33,NE,50,1.0,1.0,92,0.00,,,0.00,Wunderground v.1.15,2013-01-15 09:30:00,
2013-01-15 04:35:00,21.9,19.9,30.33,NE,50,1.0,1.0,92,0.00,,,0.00,Wunderground v.1.15,2013-01-15 09:35:00,
2013-01-15 04:40:00,21.9,19.9,30.32,NE,49,1.0,2.0,92,0.00,,,0.00,Wunderground v.1.15,2013-01-15 09:40:00,
2013-01-15 04:50:00,22.1,20.1,30.32,NNE,23,1.0,2.0,92,0.00,,,0.00,Wunderground v.1.15,2013-01-15 09:50:00,
2013-01-15 04:55:00,22.3,20.3,30.32,NNE,22,2.0,2.0,92,0.00,,,0.00,Wunderground v.1.15,2013-01-15 09:55:00,
2013-01-15 05:05:00,22.4,20.4,30.32,NE,36,1.0,2.0,92,0.00,,,0.00,Wunderground v.1.15,2013-01-15 10:05:00,
2013-01-15 05:10:00,22.4,20.4,30.32,NE,34,1.0,1.0,92,0.00,,,0.00,Wunderground v.1.15,2013-01-15 10:10:00,
2013-01-15 05:15:00,22.4,20.4,30.32,NE,34,1.0,1.0,92,0.00,,,0.00,Wunderground v.1.15,2013-01-15 10:15:00,
2013-01-15 05:20:00,22.3,20.1,30.32,NNE,25,1.0,1.0,91,0.00,,,0.00,Wunderground v.1.15,2013-01-15 10:20:00,
2013-01-15 05:25:00,22.0,19.8,30.32,NNE,25,1.0,1.0,91,0.00,,,0.00,Wunderground v.1.15,2013-01-15 10:25:00,
2013-01-15 05:30:00,21.9,19.7,30.33,NNE,25,1.0,1.0,91,0.00,,,0.00,Wunderground v.1.15,2013-01-15 10:30:00,
2013-01-15 05:40:00,21.6,19.6,30.33,NNE,25,1.0,1.0,92,0.00,,,0.00,Wunderground v.1.15,2013-01-15 10:40:00,
2013-01-15 05:45:00,21.4,19.4,30.33,NNE,25,1.0,1.0,92,0.00,,,0.00,Wunderground v.1.15,2013-01-15 10:45:00,
2013-01-15 05:50:00,21.3,19.3,30.34,NNE,25,1.0,1.0,92,0.00,,,0.00,Wunderground v.1.15,2013-01-15 10:50:00,
2013-01-15 05:55:00,21.2,19.2,30.34,NNE,24,1.0,1.0,92,0.00,,,0.00,Wunderground v.1.15,2013-01-15 10:55:00,
2013-01-15 06:00:00,21.1,19.1,30.34,NNE,25,1.0,1.0,92,0.00,,,0.00,Wunderground v.1.15,2013-01-15 11:00:00,
2013-01-15 06:10:00,21.1,19.1,30.34,NNE,24,1.0,1.0,92,0.00,,,0.00,Wunderground v.1.15,2013-01-15 11:10:00,
2013-01-15 06:20:00,20.8,18.8,30.34,NNE,25,0.0,0.0,92,0.00,,,0.00,Wunderground v.1.15,2013-01-15 11:20:00,
2013-01-15 06:25:00,20.8,19.1,30.34,NNE,25,0.0,0.0,93,0.00,,,0.00,Wunderground v.1.15,2013-01-15 11:25:00,
2013-01-15 06:30:00,20.6,18.9,30.35,NNE,25,0.0,0.0,93,0.00,,,0.00,Wunderground v.1.15,2013-01-15 11:30:00,
2013-01-15 06:35:00,20.5,18.8,30.35,NNE,25,0.0,0.0,93,0.00,,,0.00,Wunderground v.1.15,2013-01-15 11:35:00,
2013-01-15 06:45:00,20.4,18.7,30.35,NNE,25,0.0,0.0,93,0.00,,,0.00,Wunderground v.1.15,2013-01-15 11:45:00,
2013-01-15 06:55:00,20.4,18.7,30.36,NNE,25,0.0,0.0,93,0.00,,,0.00,Wunderground v.1.15,2013-01-15 11:55:00,
2013-01-15 07:00:00,20.7,19.2,30.36,NNE,24,0.0,0.0,94,0.00,,,0.00,Wunderground v.1.15,2013-01-15 12:00:00,
2013-01-15 07:10:00,21.4,19.9,30.37,NNE,25,0.0,0.0,94,0.00,,,0.00,Wunderground v.1.15,2013-01-15 12:10:00,
2013-01-15 07:15:00,21.6,20.1,30.37,NNE,25,0.0,0.0,94,0.00,,,0.00,Wunderground v.1.15,2013-01-15 12:15:00,
2013-01-15 07:25:00,22.2,20.7,30.36,NNE,25,0.0,0.0,94,0.00,,,0.00,Wunderground v.1.15,2013-01-15 12:25:00,
2013-01-15 07:30:00,22.4,20.9,30.37,NNE,25,0.0,0.0,94,0.00,,,0.00,Wunderground v.1.15,2013-01-15 12:30:00,
2013-01-15 07:35:00,22.5,21.0,30.37,NNE,25,0.0,0.0,94,0.00,,,0.00,Wunderground v.1.15,2013-01-15 12:35:00,
2013-01-15 07:40:00,22.5,21.0,30.37,NNE,25,0.0,0.0,94,0.00,,,0.00,Wunderground v.1.15,2013-01-15 12:40:00,
2013-01-15 07:45:00,22.6,21.1,30.37,NNE,25,0.0,0.0,94,0.00,,,0.00,Wunderground v.1.15,2013-01-15 12:45:00,
2013-01-15 07:50:00,22.5,21.0,30.37,NNE,25,0.0,0.0,94,0.00,,,0.00,Wunderground v.1.15,2013-01-15 12:50:00,
2013-01-15 08:00:00,22.4,20.7,30.37,NNE,25,0.0,0.0,93,0.00,,,0.00,Wunderground v.1.15,2013-01-15 13:00:00,
2013-01-15 08:10:00,22.1,20.4,30.37,NNE,25,0.0,0.0,93,0.00,,,0.00,Wunderground v.1.15,2013-01-15 13:10:00,
2013-01-15 08:15:00,21.9,20.2,30.37,NNE,25,0.0,0.0,93,0.00,,,0.00,Wunderground v.1.15,2013-01-15 13:15:00,
2013-01-15 08:20:00,21.7,20.0,30.37,NNE,24,0.0,0.0,93,0.00,,,0.00,Wunderground v.1.15,2013-01-15 13:20:00,
2013-01-15 08:25:00,21.6,19.9,30.37,NNE,25,0.0,0.0,93,0.00,,,0.00,Wunderground v.1.15,2013-01-15 13:25:00,
2013-01-15 08:35:00,21.6,19.9,30.37,NNE,25,0.0,0.0,93,0.00,,,0.00,Wunderground v.1.15,2013-01-15 13:35:00,
2013-01-15 08:40:00,21.7,20.0,30.37,NNE,25,0.0,0.0,93,0.00,,,0.00,Wunderground v.1.15,2013-01-15 13:40:00,
2013-01-15 08:45:00,22.0,20.5,30.37,NNE,24,0.0,0.0,94,0.00,,,0.00,Wunderground v.1.15,2013-01-15 13:45:00,
2013-01-15 08:50:00,22.4,20.9,30.37,NNE,20,0.0,0.0,94,0.00,,,0.00,Wunderground v.1.15,2013-01-15 13:50:00,
2013-01-15 08:55:00,22.9,21.4,30.37,North,359,0.0,0.0,94,0.00,,,0.00,Wunderground v.1.15,2013-01-15 13:55:00,
2013-01-15 09:00:00,23.6,22.1,30.37,NNE,23,0.0,1.0,94,0.00,,,0.00,Wunderground v.1.15,2013-01-15 14:00:00,
2013-01-15 09:10:00,24.7,23.0,30.37,NNE,18,1.0,2.0,93,0.00,,,0.00,Wunderground v.1.15,2013-01-15 14:10:00,
2013-01-15 09:20:00,25.6,23.6,30.38,NE,37,1.0,1.0,92,0.00,,,0.00,Wunderground v.1.15,2013-01-15 14:20:00,
2013-01-15 09:25:00,26.0,23.7,30.38,NE,37,2.0,2.0,91,0.00,,,0.00,Wunderground v.1.15,2013-01-15 14:25:00,
2013-01-15 09:30:00,26.4,23.9,30.38,NE,34,2.0,2.0,90,0.00,,,0.00,Wunderground v.1.15,2013-01-15 14:30:00,
2013-01-15 09:35:00,26.7,23.9,30.38,ENE,64,2.0,2.0,89,0.00,,,0.00,Wunderground v.1.15,2013-01-15 14:35:00,
2013-01-15 09:40:00,26.8,23.7,30.38,NE,49,2.0,2.0,88,0.00,,,0.00,Wunderground v.1.15,2013-01-15 14:40:00,
2013-01-15 09:45:00,27.0,23.6,30.38,NNE,32,2.0,2.0,87,0.00,,,0.00,Wunderground v.1.15,2013-01-15 14:45:00,
2013-01-15 09:50:00,27.2,23.6,30.37,NE,34,3.0,3.0,86,0.00,,,0.00,Wunderground v.1.15,2013-01-15 14:50:00,
2013-01-15 10:00:00,27.7,24.1,30.37,NNE,29,2.0,3.0,86,0.00,,,0.00,Wunderground v.1.15,2013-01-15 15:00:00,
2013-01-15 10:10:00,27.8,23.6,30.37,NNE,30,3.0,4.0,84,0.00,,,0.00,Wunderground v.1.15,2013-01-15 15:10:00,
2013-01-15 10:20:00,28.1,24.2,30.37,NE,54,2.0,3.0,85,0.00,,,0.00,Wunderground v.1.15,2013-01-15 15:20:00,
2013-01-15 10:25:00,28.1,23.9,30.37,NE,47,2.0,3.0,84,0.00,,,0.00,Wunderground v.1.15,2013-01-15 15:25:00,
2013-01-15 10:30:00,28.2,24.0,30.36,NNE,25,2.0,5.0,84,0.00,,,0.00,Wunderground v.1.15,2013-01-15 15:30:00,
2013-01-15 10:35:00,28.3,24.1,30.36,NNE,22,2.0,5.0,84,0.00,,,0.00,Wunderground v.1.15,2013-01-15 15:35:00,
2013-01-15 10:45:00,28.4,23.3,30.36,NE,34,5.0,5.0,81,0.00,,,0.00,Wunderground v.1.15,2013-01-15 15:45:00,
2013-01-15 10:50:00,28.3,23.2,30.36,NE,40,6.0,6.0,81,0.00,,,0.00,Wunderground v.1.15,2013-01-15 15:50:00,
2013-01-15 10:55:00,28.5,23.4,30.36,NNE,16,5.0,6.0,81,0.00,,,0.00,Wunderground v.1.15,2013-01-15 15:55:00,
2013-01-15 11:00:00,28.6,23.5,30.35,NE,46,5.0,5.0,81,0.00,,,0.00,Wunderground v.1.15,2013-01-15 16:00:00,
2013-01-15 11:10:00,29.7,24.6,30.34,NNE,22,4.0,6.0,81,0.00,,,0.00,Wunderground v.1.15,2013-01-15 16:10:00,
2013-01-15 11:15:00,29.7,24.3,30.34,NNE,19,4.0,6.0,80,0.00,,,0.00,Wunderground v.1.15,2013-01-15 16:15:00,
2013-01-15 11:25:00,29.3,23.6,30.33,NNE,30,3.0,4.0,79,0.00,,,0.00,Wunderground v.1.15,2013-01-15 16:25:00,
2013-01-15 11:30:00,29.3,23.6,30.34,NNE,18,3.0,7.0,79,0.00,,,0.00,Wunderground v.1.15,2013-01-15 16:30:00,
2013-01-15 11:35:00,29.4,24.0,30.34,NNW,327,3.0,7.0,80,0.00,,,0.00,Wunderground v.1.15,2013-01-15 16:35:00,
2013-01-15 11:40:00,29.9,25.1,30.33,NNE,25,3.0,3.0,82,0.00,,,0.00,Wunderground v.1.15,2013-01-15 16:40:00,
2013-01-15 11:45:00,30.3,24.9,30.33,East,96,3.0,3.0,80,0.00,,,0.00,Wunderground v.1.15,2013-01-15 16:45:00,
2013-01-15 11:50:00,30.3,24.3,30.33,NNE,30,2.0,2.0,78,0.00,,,0.00,Wunderground v.1.15,2013-01-15 16:50:00,
2013-01-15 12:00:00,30.2,24.2,30.33,NNE,20,3.0,5.0,78,0.00,,,0.00,Wunderground v.1.15,2013-01-15 17:00:00,
2013-01-15 12:10:00,30.1,23.8,30.33,East,87,4.0,4.0,77,0.00,,,0.00,Wunderground v.1.15,2013-01-15 17:10:00,
2013-01-15 12:15:00,30.4,24.4,30.33,NE,36,3.0,4.0,78,0.00,,,0.00,Wunderground v.1.15,2013-01-15 17:15:00,
2013-01-15 12:20:00,30.7,24.3,30.32,East,89,2.0,2.0,77,0.00,,,0.00,Wunderground v.1.15,2013-01-15 17:20:00,
2013-01-15 12:25:00,31.5,25.1,30.32,North,354,2.0,2.0,77,0.00,,,0.00,Wunderground v.1.15,2013-01-15 17:25:00,
2013-01-15 12:35:00,32.0,24.3,30.32,ENE,73,2.0,2.0,73,0.00,,,0.00,Wunderground v.1.15,2013-01-15 17:35:00,
2013-01-15 12:40:00,32.1,24.7,30.31,NNE,26,2.0,2.0,74,0.00,,,0.00,Wunderground v.1.15,2013-01-15 17:40:00,
2013-01-15 12:45:00,32.0,24.3,30.31,NE,54,1.0,2.0,73,0.00,,,0.00,Wunderground v.1.15,2013-01-15 17:45:00,
2013-01-15 12:50:00,31.4,23.4,30.30,NE,46,2.0,2.0,72,0.00,,,0.00,Wunderground v.1.15,2013-01-15 17:50:00,
2013-01-15 12:55:00,31.1,23.8,30.31,NNE,26,4.0,4.0,74,0.00,,,0.00,Wunderground v.1.15,2013-01-15 17:55:00,
2013-01-15 13:00:00,31.1,23.8,30.30,North,11,4.0,4.0,74,0.00,,,0.00,Wunderground v.1.15,2013-01-15 18:00:00,
2013-01-15 13:10:00,31.7,24.7,30.30,NNE,13,2.0,2.0,75,0.00,,,0.00,Wunderground v.1.15,2013-01-15 18:10:00,
2013-01-15 13:15:00,32.1,24.4,30.29,NE,34,1.0,4.0,73,0.00,,,0.00,Wunderground v.1.15,2013-01-15 18:15:00,
2013-01-15 13:25:00,32.2,24.8,30.28,ESE,103,4.0,4.0,74,0.00,,,0.00,Wunderground v.1.15,2013-01-15 18:25:00,
2013-01-15 13:30:00,32.4,24.4,30.28,NE,39,4.0,4.0,72,0.00,,,0.00,Wunderground v.1.15,2013-01-15 18:30:00,
2013-01-15 13:35:00,32.3,23.9,30.27,NNE,15,4.0,7.0,71,0.00,,,0.00,Wunderground v.1.15,2013-01-15 18:35:00,
2013-01-15 13:40:00,32.1,23.8,30.27,NNE,25,4.0,4.0,71,0.00,,,0.00,Wunderground v.1.15,2013-01-15 18:40:00,
2013-01-15 13:45:00,32.2,24.2,30.25,ESE,105,3.0,4.0,72,0.00,,,0.00,Wunderground v.1.15,2013-01-15 18:45:00,
2013-01-15 13:50:00,32.4,24.0,30.25,NE,49,3.0,3.0,71,0.00,,,0.00,Wunderground v.1.15,2013-01-15 18:50:00,
2013-01-15 13:55:00,32.9,24.9,30.25,NNE,27,2.0,4.0,72,0.00,,,0.00,Wunderground v.1.15,2013-01-15 18:55:00,
2013-01-15 14:05:00,32.8,24.4,30.25,ENE,71,3.0,3.0,71,0.00,,,0.00,Wunderground v.1.15,2013-01-15 19:05:00,
2013-01-15 14:10:00,32.7,24.0,30.27,ENE,63,3.0,4.0,70,0.00,,,0.00,Wunderground v.1.15,2013-01-15 19:10:00,
2013-01-15 14:15:00,32.7,24.0,30.27,NE,46,4.0,4.0,70,0.00,,,0.00,Wunderground v.1.15,2013-01-15 19:15:00,
2013-01-15 14:20:00,32.6,23.9,30.27,NNE,30,4.0,4.0,70,0.00,,,0.00,Wunderground v.1.15,2013-01-15 19:20:00,
2013-01-15 14:25:00,32.5,24.1,30.26,NE,37,3.0,4.0,71,0.00,,,0.00,Wunderground v.1.15,2013-01-15 19:25:00,
2013-01-15 14:30:00,32.5,24.5,30.26,NNE,30,3.0,3.0,72,0.00,,,0.00,Wunderground v.1.15,2013-01-15 19:30:00,
2013-01-15 14:35:00,32.4,23.7,30.26,NE,39,5.0,5.0,70,0.00,,,0.00,Wunderground v.1.15,2013-01-15 19:35:00,
2013-01-15 14:45:00,32.5,23.8,30.26,NNE,25,3.0,5.0,70,0.00,,,0.00,Wunderground v.1.15,2013-01-15 19:45:00,
2013-01-15 14:50:00,32.4,24.0,30.26,NNE,27,4.0,4.0,71,0.00,,,0.00,Wunderground v.1.15,2013-01-15 19:50:00,
2013-01-15 14:55:00,32.5,24.1,30.26,NNE,23,3.0,-999.0,71,0.00,,,0.00,Wunderground v.1.15,2013-01-15 19:55:00,
2013-01-15 15:00:00,32.5,24.1,30.26,NE,45,4.0,-999.0,71,0.00,,,0.00,Wunderground v.1.15,2013-01-15 20:00:00,
2013-01-15 15:05:00,32.6,23.9,30.25,NE,45,3.0,-999.0,70,0.00,,,0.00,Wunderground v.1.15,2013-01-15 20:05:00,
2013-01-15 15:10:00,32.5,24.1,30.25,NE,45,5.0,-999.0,71,0.00,,,0.00,Wunderground v.1.15,2013-01-15 20:10:00,
2013-01-15 15:15:00,32.5,23.8,30.25,NE,45,4.0,-999.0,70,0.00,,,0.00,Wunderground v.1.15,2013-01-15 20:15:00,
2013-01-15 15:20:00,32.6,24.2,30.24,NNE,23,3.0,-999.0,71,0.00,,,0.00,Wunderground v.1.15,2013-01-15 20:20:00,
2013-01-15 15:25:00,32.7,24.3,30.23,NNE,23,3.0,-999.0,71,0.00,,,0.00,Wunderground v.1.15,2013-01-15 20:25:00,
2013-01-15 15:30:00,32.7,24.3,30.23,NNE,23,4.0,-999.0,71,0.00,,,0.00,Wunderground v.1.15,2013-01-15 20:30:00,
2013-01-15 15:35:00,32.7,24.3,30.24,NE,45,3.0,-999.0,71,0.00,,,0.00,Wunderground v.1.15,2013-01-15 20:35:00,
2013-01-15 15:40:00,32.7,24.7,30.24,NNE,23,3.0,-999.0,72,0.00,,,0.00,Wunderground v.1.15,2013-01-15 20:40:00,
2013-01-15 15:45:00,32.9,24.5,30.25,North,0,2.0,-999.0,71,0.00,,,0.00,Wunderground v.1.15,2013-01-15 20:45:00,
2013-01-15 15:50:00,32.9,24.5,30.26,ENE,68,2.0,-999.0,71,0.00,,,0.00,Wunderground v.1.15,2013-01-15 20:50:00,
2013-01-15 15:55:00,32.8,24.4,30.26,ENE,68,1.0,-999.0,71,0.00,,,0.00,Wunderground v.1.15,2013-01-15 20:55:00,
2013-01-15 16:00:00,32.9,24.9,30.26,East,90,1.0,-999.0,72,0.00,,,0.00,Wunderground v.1.15,2013-01-15 21:00:00,
2013-01-15 16:05:00,32.9,24.9,30.26,ESE,113,1.0,-999.0,72,0.00,,,0.00,Wunderground v.1.15,2013-01-15 21:05:00,
2013-01-15 16:10:00,32.8,24.4,30.25,NNE,23,3.0,-999.0,71,0.00,,,0.00,Wunderground v.1.15,2013-01-15 21:10:00,
2013-01-15 16:15:00,32.7,24.7,30.25,NNE,23,3.0,-999.0,72,0.00,,,0.00,Wunderground v.1.15,2013-01-15 21:15:00,
2013-01-15 16:20:00,32.6,24.6,30.24,NNE,23,3.0,-999.0,72,0.00,,,0.00,Wunderground v.1.15,2013-01-15 21:20:00,
2013-01-15 16:25:00,32.5,24.5,30.25,NE,45,3.0,-999.0,72,0.00,,,0.00,Wunderground v.1.15,2013-01-15 21:25:00,
2013-01-15 16:30:00,32.3,24.3,30.25,ENE,68,2.0,-999.0,72,0.00,,,0.00,Wunderground v.1.15,2013-01-15 21:30:00,
2013-01-15 16:35:00,32.2,23.8,30.24,NNE,23,4.0,-999.0,71,0.00,,,0.00,Wunderground v.1.15,2013-01-15 21:35:00,
2013-01-15 16:40:00,32.1,23.8,30.24,NNE,23,4.0,-999.0,71,0.00,,,0.00,Wunderground v.1.15,2013-01-15 21:40:00,
2013-01-15 16:45:00,32.0,23.7,30.25,NNE,23,4.0,-999.0,71,0.00,,,0.00,Wunderground v.1.15,2013-01-15 21:45:00,
2013-01-15 16:50:00,31.9,23.6,30.24,NNE,23,4.0,-999.0,71,0.00,,,0.00,Wunderground v.1.15,2013-01-15 21:50:00,
2013-01-15 16:55:00,31.8,23.8,30.23,NNE,23,5.0,-999.0,72,0.00,,,0.00,Wunderground v.1.15,2013-01-15 21:55:00,
2013-01-15 17:00:00,31.6,23.6,30.24,NE,45,3.0,-999.0,72,0.00,,,0.00,Wunderground v.1.15,2013-01-15 22:00:00,
2013-01-15 17:05:00,31.6,23.9,30.25,NNE,23,2.0,-999.0,73,0.00,,,0.00,Wunderground v.1.15,2013-01-15 22:05:00,
2013-01-15 17:15:00,31.4,23.7,30.26,NNE,19,3.0,3.0,73,0.00,,,0.00,Wunderground v.1.15,2013-01-15 22:15:00,
2013-01-15 17:25:00,31.4,24.1,30.25,NNE,29,2.0,2.0,74,0.00,,,0.00,Wunderground v.1.15,2013-01-15 22:25:00,
2013-01-15 17:35:00,31.2,24.2,30.25,ENE,63,2.0,2.0,75,0.00,,,0.00,Wunderground v.1.15,2013-01-15 22:35:00,
2013-01-15 17:40:00,31.2,24.2,30.25,NNE,30,2.0,4.0,75,0.00,,,0.00,Wunderground v.1.15,2013-01-15 22:40:00,
2013-01-15 17:45:00,31.2,24.2,30.25,NNE,13,3.0,6.0,75,0.00,,,0.00,Wunderground v.1.15,2013-01-15 22:45:00,
2013-01-15 17:50:00,31.2,24.2,30.24,North,1,3.0,6.0,75,0.00,,,0.00,Wunderground v.1.15,2013-01-15 22:50:00,
2013-01-15 17:55:00,31.2,24.5,30.24,NNE,15,3.0,3.0,76,0.00,,,0.00,Wunderground v.1.15,2013-01-15 22:55:00,
2013-01-15 18:00:00,31.1,24.4,30.24,NNE,21,2.0,2.0,76,0.00,,,0.00,Wunderground v.1.15,2013-01-15 23:00:00,
2013-01-15 18:10:00,31.0,24.3,30.24,NNE,22,2.0,2.0,76,0.00,,,0.00,Wunderground v.1.15,2013-01-15 23:10:00,
2013-01-15 18:15:00,31.0,24.3,30.23,NNE,18,2.0,2.0,76,0.00,,,0.00,Wunderground v.1.15,2013-01-15 23:15:00,
2013-01-15 18:20:00,30.9,24.2,30.23,ENE,61,2.0,2.0,76,0.00,,,0.00,Wunderground v.1.15,2013-01-15 23:20:00,
2013-01-15 18:25:00,30.9,24.2,30.22,NE,53,2.0,2.0,76,0.00,,,0.00,Wunderground v.1.15,2013-01-15 23:25:00,
2013-01-15 18:30:00,30.8,24.1,30.22,ESE,123,1.0,3.0,76,0.00,,,0.00,Wunderground v.1.15,2013-01-15 23:30:00,
2013-01-15 18:35:00,30.8,24.1,30.22,East,99,1.0,3.0,76,0.00,,,0.00,Wunderground v.1.15,2013-01-15 23:35:00,
2013-01-15 18:45:00,30.7,24.3,30.21,NNE,25,0.0,0.0,77,0.00,,,0.00,Wunderground v.1.15,2013-01-15 23:45:00,
2013-01-15 18:50:00,30.7,24.0,30.21,ESE,102,1.0,1.0,76,0.00,,,0.00,Wunderground v.1.15,2013-01-15 23:50:00,
2013-01-15 18:55:00,30.7,24.0,30.22,NE,46,2.0,2.0,76,0.00,,,0.00,Wunderground v.1.15,2013-01-15 23:55:00,
2013-01-15 19:00:00,30.7,24.0,30.22,East,98,2.0,2.0,76,0.00,,,0.00,Wunderground v.1.15,2013-01-16 00:00:00,
2013-01-15 19:10:00,30.6,23.9,30.22,NNE,29,2.0,3.0,76,0.00,,,0.00,Wunderground v.1.15,2013-01-16 00:10:00,
2013-01-15 19:15:00,30.6,24.2,30.22,NNE,24,2.0,3.0,77,0.00,,,0.00,Wunderground v.1.15,2013-01-16 00:15:00,
2013-01-15 19:20:00,30.5,24.1,30.22,NNE,16,2.0,3.0,77,0.00,,,0.00,Wunderground v.1.15,2013-01-16 00:20:00,
2013-01-15 19:25:00,30.5,24.1,30.22,NNE,27,3.0,3.0,77,0.00,,,0.00,Wunderground v.1.15,2013-01-16 00:25:00,
2013-01-15 19:35:00,30.4,24.1,30.21,NNE,24,3.0,3.0,77,0.00,,,0.00,Wunderground v.1.15,2013-01-16 00:35:00,
2013-01-15 19:45:00,30.3,24.0,30.20,NNE,15,3.0,4.0,77,0.00,,,0.00,Wunderground v.1.15,2013-01-16 00:45:00,
2013-01-15 19:50:00,30.2,23.9,30.20,NE,40,3.0,4.0,77,0.00,,,0.00,Wunderground v.1.15,2013-01-16 00:50:00,
2013-01-15 19:55:00,30.2,23.9,30.20,NE,42,3.0,5.0,77,0.00,,,0.00,Wunderground v.1.15,2013-01-16 00:55:00,
2013-01-15 20:00:00,30.2,23.9,30.20,NE,53,3.0,3.0,77,0.00,,,0.00,Wunderground v.1.15,2013-01-16 01:00:00,
2013-01-15 20:10:00,30.1,23.8,30.19,NE,42,1.0,1.0,77,0.00,,,0.00,Wunderground v.1.15,2013-01-16 01:10:00,
2013-01-15 20:15:00,30.0,23.7,30.19,NE,43,1.0,1.0,77,0.00,,,0.00,Wunderground v.1.15,2013-01-16 01:15:00,
2013-01-15 20:20:00,30.0,23.7,30.18,ENE,71,1.0,1.0,77,0.00,,,0.00,Wunderground v.1.15,2013-01-16 01:20:00,
2013-01-15 20:25:00,30.0,24.0,30.19,ENE,71,1.0,1.0,78,0.00,,,0.00,Wunderground v.1.15,2013-01-16 01:25:00,
2013-01-15 20:30:00,30.0,24.0,30.18,ENE,69,1.0,1.0,78,0.00,,,0.00,Wunderground v.1.15,2013-01-16 01:30:00,
2013-01-15 20:35:00,30.0,24.0,30.18,NE,34,1.0,1.0,78,0.00,,,0.00,Wunderground v.1.15,2013-01-16 01:35:00,
2013-01-15 20:40:00,30.0,24.0,30.18,NNE,20,2.0,3.0,78,0.00,,,0.00,Wunderground v.1.15,2013-01-16 01:40:00,
2013-01-15 20:50:00,30.1,24.1,30.17,North,11,3.0,4.0,78,0.00,,,0.00,Wunderground v.1.15,2013-01-16 01:50:00,
2013-01-15 20:55:00,30.1,24.1,30.16,NE,34,4.0,4.0,78,0.00,,,0.00,Wunderground v.1.15,2013-01-16 01:55:00,
2013-01-15 21:00:00,30.1,24.1,30.15,NNE,27,4.0,6.0,78,0.00,,,0.00,Wunderground v.1.15,2013-01-16 02:00:00,
2013-01-15 21:10:00,30.1,24.1,30.15,NNE,25,4.0,4.0,78,0.00,,,0.00,Wunderground v.1.15,2013-01-16 02:10:00,
2013-01-15 21:15:00,30.1,24.1,30.14,NNE,18,3.0,4.0,78,0.00,,,0.00,Wunderground v.1.15,2013-01-16 02:15:00,
2013-01-15 21:20:00,30.1,24.1,30.14,ENE,61,3.0,3.0,78,0.00,,,0.00,Wunderground v.1.15,2013-01-16 02:20:00,
2013-01-15 21:25:00,30.1,24.1,30.14,NNE,27,3.0,3.0,78,0.00,,,0.00,Wunderground v.1.15,2013-01-16 02:25:00,
2013-01-15 21:30:00,30.1,24.1,30.14,NNE,25,3.0,3.0,78,0.00,,,0.00,Wunderground v.1.15,2013-01-16 02:30:00,
2013-01-15 21:35:00,30.1,24.1,30.14,NNE,22,3.0,4.0,78,0.00,,,0.00,Wunderground v.1.15,2013-01-16 02:35:00,
2013-01-15 21:40:00,30.1,24.1,30.13,NNE,28,4.0,4.0,78,0.00,,,0.00,Wunderground v.1.15,2013-01-16 02:40:00,
2013-01-15 21:50:00,30.1,24.1,30.14,NE,50,3.0,3.0,78,0.00,,,0.00,Wunderground v.1.15,2013-01-16 02:50:00,
2013-01-15 21:55:00,30.1,24.1,30.14,North,9,2.0,3.0,78,0.00,,,0.00,Wunderground v.1.15,2013-01-16 02:55:00,
2013-01-15 22:00:00,30.1,24.1,30.14,NNE,20,2.0,2.0,78,0.00,,,0.00,Wunderground v.1.15,2013-01-16 03:00:00,
2013-01-15 22:10:00,30.2,24.2,30.15,NNE,15,2.0,2.0,78,0.00,,,0.00,Wunderground v.1.15,2013-01-16 03:10:00,
2013-01-15 22:15:00,30.2,24.2,30.14,NNE,12,2.0,2.0,78,0.00,,,0.00,Wunderground v.1.15,2013-01-16 03:15:00,
2013-01-15 22:20:00,30.2,24.2,30.14,NNE,15,2.0,2.0,78,0.00,,,0.00,Wunderground v.1.15,2013-01-16 03:20:00,
2013-01-15 22:25:00,30.2,24.2,30.14,NNE,15,2.0,2.0,78,0.00,,,0.00,Wunderground v.1.15,2013-01-16 03:25:00,
2013-01-15 22:35:00,30.1,24.4,30.12,NNE,27,2.0,3.0,79,0.00,,,0.00,Wunderground v.1.15,2013-01-16 03:35:00,
2013-01-15 22:40:00,30.1,24.1,30.12,NNE,24,3.0,5.0,78,0.00,,,0.00,Wunderground v.1.15,2013-01-16 03:40:00,
2013-01-15 22:45:00,30.1,24.4,30.11,ENE,57,3.0,5.0,79,0.00,,,0.00,Wunderground v.1.15,2013-01-16 03:45:00,
2013-01-15 22:50:00,30.1,24.4,30.11,NE,50,2.0,5.0,79,0.00,,,0.00,Wunderground v.1.15,2013-01-16 03:50:00,
2013-01-15 22:55:00,30.1,24.1,30.10,NNE,25,3.0,5.0,78,0.00,,,0.00,Wunderground v.1.15,2013-01-16 03:55:00,
2013-01-15 23:00:00,30.1,24.4,30.10,NNE,19,3.0,3.0,79,0.00,,,0.00,Wunderground v.1.15,2013-01-16 04:00:00,
2013-01-15 23:10:00,30.1,24.1,30.09,NNE,30,3.0,4.0,78,0.00,,,0.00,Wunderground v.1.15,2013-01-16 04:10:00,
2013-01-15 23:15:00,30.2,24.2,30.09,NNE,21,3.0,4.0,78,0.00,,,0.00,Wunderground v.1.15,2013-01-16 04:15:00,
2013-01-15 23:20:00,30.2,24.2,30.08,NE,37,4.0,4.0,78,0.00,,,0.00,Wunderground v.1.15,2013-01-16 04:20:00,
2013-01-15 23:30:00,30.2,24.2,30.08,NNE,26,3.0,3.0,78,0.00,,,0.00,Wunderground v.1.15,2013-01-16 04:30:00,
2013-01-15 23:35:00,30.2,24.2,30.07,NNE,27,3.0,3.0,78,0.00,,,0.00,Wunderground v.1.15,2013-01-16 04:35:00,
2013-01-15 23:40:00,30.3,24.0,30.08,NE,37,3.0,3.0,77,0.00,,,0.00,Wunderground v.1.15,2013-01-16 04:40:00,
2013-01-15 23:50:00,30.4,24.1,30.09,NNE,27,3.0,3.0,77,0.00,,,0.00,Wunderground v.1.15,2013-01-16 04:50:00,
2013-01-15 23:55:00,30.4,24.1,30.08,NNE,19,3.0,3.0,77,0.00,,,0.00,Wunderground v.1.15,2013-01-16 04:55:00,